Rock Springs Sweetwater County Airport
KRKS : now visible

Airfield :











YOU CAN JOIN US ON...

 
LOGIN :

Register | Disclaimer

   EN    FR    IT 

 









Legend :    VFR   Marginal VFR   IFR   Intensive IFR   Very Intensive IFR
Visi :
Ceiling :
>= 8 km
>= 3000ft
5 to 8 km
1000 to 3000 ft
1500m to 5 km
500 to 1000 ft
800 to 1500m
200 to 500 ft
< 800m
< 200 ft
Symbols :   Thunderstorms  Fog  Heavy snow  Heavy precipitations  Wind > 20 kt






- Airport Elevation : 6764 ft
- IATA code : RKS


KRKS - Rock Springs Sweetwater County

CURRENT METAR :
  • 021202Z AUTO 29020G25KT 6SM -SN BR FEW004 BKN022 OVC033 M03/M04 A2960 RMK AO2 P0000 T10331044

EXPIRED METARs :
  • 021135Z AUTO 25019G31KT 3/4SM -SN BR FEW005 BKN014 OVC026 M01/M01 A2957 RMK AO2 PK WND 23031/1126 P0000 T10061011
  • 021115Z AUTO 23023G31KT 1 3/4SM -SN BR OVC018 00/M02 A2955 RMK AO2 PK WND 22031/1113 P0000 T00001022
  • 021107Z AUTO 23018G28KT 3SM -SN BR OVC020 00/M02 A2955 RMK AO2 PK WND 22030/1057 P0000 T00001022
  • 021054Z AUTO 23019G34KT 2 1/2SM -SN OVC022 01/M03 A2955 RMK AO2 PK WND 21034/1050 VIS 2V5 SNB43 SLP999 P0000 T00061028
  • 021032Z AUTO 21015G22KT 10SM OVC026 01/M03 A2955 RMK AO2 PK WND 21027/1000 T00061033
  • 020954Z AUTO 21018G30KT 10SM OVC044 01/M04 A2954 RMK AO2 PK WND 21038/0855 SLP997 T00061039

TAF KRKS
Valid from the 02 at 12:00 until the 03 at 12:00 UTC


021139Z 0212/0312 25022G32KT 4SM -SN SCT015 OVC025
TEMPO 0212/0215 1 1/2SM -SN BLSN BKN015
FM021500 26025G37KT P6SM SCT050 BKN070
FM022300 27020G30KT P6SM SKC
FM030300 25009KT P6SM SKC
KZLC FIR / North America



MET'MAP, your aeronautical weather chart ! - Copyright ORBIFLY December 2007 - Disclaimer

ORBIFLY MET'MAP TEAM :

Programming & Development : Alexandra Zaïnal
Original concept : Baudouin d'Aumeries
Technical & hardware support : Manuel Goepfert
Assistance : Marc-Olivier Méhu




SOURCES & CREDITS :

   NOAA       Earth
Advisory